Time,TemperatureF,DewpointF,PressureIn,WindDirection,WindDirectionDegrees,WindSpeedMPH,WindSpeedGustMPH,Humidity,HourlyPrecipIn,Conditions,Clouds,dailyrainin,SoftwareType,DateUTC
2013-01-07 00:02:00,42.5,38.0,29.90,SSW,208,5.0,5.0,84,0.02,,FEW,0.00,VWS V14.01,2013-01-07 08:02:00,
2013-01-07 00:07:00,42.5,38.3,29.90,SSW,199,2.0,5.0,85,0.02,,FEW,0.00,VWS V14.01,2013-01-07 08:07:00,
2013-01-07 00:12:00,42.5,38.0,29.90,SE,131,4.0,9.0,84,0.02,,FEW,0.00,VWS V14.01,2013-01-07 08:12:00,
2013-01-07 00:17:00,42.5,38.0,29.90,South,186,5.0,9.0,84,0.03,,FEW,0.01,VWS V14.01,2013-01-07 08:17:00,
2013-01-07 00:22:00,42.5,38.3,29.90,South,189,4.0,9.0,85,0.03,,FEW,0.01,VWS V14.01,2013-01-07 08:22:00,
2013-01-07 00:27:00,42.5,38.3,29.90,SSE,166,8.0,9.0,85,0.03,,FEW,0.01,VWS V14.01,2013-01-07 08:27:00,
2013-01-07 00:32:00,42.5,38.3,29.89,South,178,6.0,7.0,85,0.03,,FEW,0.02,VWS V14.01,2013-01-07 08:32:00,
2013-01-07 00:37:00,42.6,38.1,29.89,SE,139,4.0,11.0,84,0.03,,FEW,0.02,VWS V14.01,2013-01-07 08:37:00,
2013-01-07 00:42:00,42.6,38.4,29.89,SSW,192,4.0,11.0,85,0.04,,FEW,0.03,VWS V14.01,2013-01-07 08:42:00,
2013-01-07 00:47:00,42.8,38.3,29.89,South,182,7.0,14.0,84,0.04,,FEW,0.03,VWS V14.01,2013-01-07 08:47:00,
2013-01-07 00:52:00,42.8,38.3,29.89,SSW,209,5.0,14.0,84,0.04,,FEW,0.03,VWS V14.01,2013-01-07 08:52:00,
2013-01-07 00:57:00,42.6,38.1,29.89,SSW,207,3.0,14.0,84,0.05,,FEW,0.04,VWS V14.01,2013-01-07 08:57:00,
2013-01-07 01:02:00,42.8,38.0,29.88,SSE,166,3.0,13.0,83,0.04,,FEW,0.04,VWS V14.01,2013-01-07 09:02:00,
2013-01-07 01:07:00,42.9,38.1,29.88,NNW,338,2.0,15.0,83,0.05,,FEW,0.05,VWS V14.01,2013-01-07 09:07:00,
2013-01-07 01:13:00,42.8,38.3,29.88,SE,139,6.0,15.0,84,0.05,,FEW,0.05,VWS V14.01,2013-01-07 09:13:00,
2013-01-07 01:18:00,42.6,38.1,29.88,SSW,206,5.0,15.0,84,0.05,,FEW,0.05,VWS V14.01,2013-01-07 09:18:00,
2013-01-07 01:23:00,42.5,38.0,29.88,SSW,195,0.0,15.0,84,0.05,,FEW,0.05,VWS V14.01,2013-01-07 09:23:00,
2013-01-07 01:28:00,42.6,37.8,29.88,ESE,122,5.0,15.0,83,0.05,,FEW,0.05,VWS V14.01,2013-01-07 09:28:00,
2013-01-07 01:33:00,42.8,38.0,29.87,SE,133,10.0,10.0,83,0.03,,FEW,0.05,VWS V14.01,2013-01-07 09:33:00,
2013-01-07 01:38:00,42.8,38.0,29.87,SSW,206,9.0,10.0,83,0.03,,FEW,0.05,VWS V14.01,2013-01-07 09:38:00,
2013-01-07 01:43:00,42.9,37.8,29.87,South,189,3.0,12.0,82,0.04,,FEW,0.06,VWS V14.01,2013-01-07 09:43:00,
2013-01-07 01:48:00,42.8,38.0,29.89,South,173,2.0,14.0,83,0.05,,FEW,0.07,VWS V14.01,2013-01-07 09:48:00,
2013-01-07 01:53:00,42.8,38.3,29.89,South,184,2.0,14.0,84,0.05,,FEW,0.07,VWS V14.01,2013-01-07 09:53:00,
2013-01-07 01:58:00,42.8,38.3,29.89,South,189,3.0,14.0,84,0.06,,FEW,0.08,VWS V14.01,2013-01-07 09:58:00,
2013-01-07 02:03:00,42.6,38.4,29.88,SSW,195,4.0,7.0,85,0.04,,FEW,0.08,VWS V14.01,2013-01-07 10:03:00,
2013-01-07 02:08:00,42.6,38.4,29.88,South,177,3.0,13.0,85,0.04,,FEW,0.08,VWS V14.01,2013-01-07 10:08:00,
2013-01-07 02:13:00,42.6,38.4,29.88,SSW,200,6.0,13.0,85,0.04,,FEW,0.08,VWS V14.01,2013-01-07 10:13:00,
2013-01-07 02:18:00,42.6,38.4,29.87,SSE,150,3.0,13.0,85,0.04,,FEW,0.08,VWS V14.01,2013-01-07 10:18:00,
2013-01-07 02:23:00,42.6,38.4,29.87,South,184,3.0,13.0,85,0.04,,FEW,0.08,VWS V14.01,2013-01-07 10:23:00,
2013-01-07 02:28:00,42.8,38.3,29.87,South,189,5.0,13.0,84,0.04,,FEW,0.08,VWS V14.01,2013-01-07 10:28:00,
2013-01-07 02:33:00,42.9,38.4,29.86,ESE,121,1.0,6.0,84,0.03,,FEW,0.08,VWS V14.01,2013-01-07 10:33:00,
2013-01-07 02:38:00,43.2,38.1,29.86,SE,140,4.0,14.0,82,0.03,,FEW,0.08,VWS V14.01,2013-01-07 10:38:00,
2013-01-07 02:43:00,43.8,38.4,29.86,South,179,4.0,14.0,81,0.03,,FEW,0.08,VWS V14.01,2013-01-07 10:43:00,
2013-01-07 02:48:00,43.9,38.1,29.86,SSW,199,5.0,14.0,80,0.03,,FEW,0.08,VWS V14.01,2013-01-07 10:48:00,
2013-01-07 02:53:00,44.1,38.3,29.86,South,183,10.0,14.0,80,0.03,,FEW,0.08,VWS V14.01,2013-01-07 10:53:00,
2013-01-07 02:58:00,44.2,38.1,29.86,South,190,6.0,14.0,79,0.03,,FEW,0.08,VWS V14.01,2013-01-07 10:58:00,
2013-01-07 03:03:00,44.5,37.8,29.85,South,171,3.0,13.0,77,0.00,,FEW,0.08,VWS V14.01,2013-01-07 11:03:00,
2013-01-07 03:08:00,44.6,38.2,29.85,South,185,4.0,13.0,78,0.00,,FEW,0.08,VWS V14.01,2013-01-07 11:08:00,
2013-01-07 03:13:00,44.6,37.8,29.85,ESE,114,7.0,13.0,77,0.00,,FEW,0.08,VWS V14.01,2013-01-07 11:13:00,
2013-01-07 03:18:00,44.9,37.8,29.84,SE,145,0.0,15.0,76,0.00,,FEW,0.08,VWS V14.01,2013-01-07 11:18:00,
2013-01-07 03:23:00,44.9,38.1,29.84,South,185,2.0,15.0,77,0.00,,FEW,0.08,VWS V14.01,2013-01-07 11:23:00,
2013-01-07 03:28:00,44.9,38.5,29.84,South,174,2.0,15.0,78,0.00,,FEW,0.08,VWS V14.01,2013-01-07 11:28:00,
2013-01-07 03:33:00,45.2,38.1,29.84,SSW,194,3.0,9.0,76,0.00,,FEW,0.08,VWS V14.01,2013-01-07 11:33:00,
2013-01-07 03:38:00,45.2,38.1,29.84,South,180,1.0,9.0,76,0.00,,FEW,0.08,VWS V14.01,2013-01-07 11:38:00,
2013-01-07 03:43:00,45.4,38.6,29.84,South,187,2.0,15.0,77,0.00,,FEW,0.08,VWS V14.01,2013-01-07 11:43:00,
2013-01-07 03:48:00,45.5,38.4,29.84,South,188,6.0,15.0,76,0.00,,FEW,0.08,VWS V14.01,2013-01-07 11:48:00,
2013-01-07 03:53:00,45.7,38.9,29.84,SSW,193,6.0,15.0,77,0.00,,FEW,0.08,VWS V14.01,2013-01-07 11:53:00,
2013-01-07 03:58:00,45.5,39.0,29.84,SE,129,0.0,15.0,78,0.01,,FEW,0.09,VWS V14.01,2013-01-07 11:58:00,
2013-01-07 04:03:00,45.1,39.3,29.84,South,173,1.0,4.0,80,0.01,,FEW,0.09,VWS V14.01,2013-01-07 12:03:00,
2013-01-07 04:08:00,44.8,39.7,29.84,SSW,207,2.0,7.0,82,0.02,,FEW,0.10,VWS V14.01,2013-01-07 12:08:00,
2013-01-07 04:13:00,44.6,40.1,29.84,SE,139,0.0,7.0,84,0.02,,FEW,0.10,VWS V14.01,2013-01-07 12:13:00,
2013-01-07 04:18:00,44.3,40.1,29.84,SSE,151,2.0,7.0,85,0.02,,FEW,0.10,VWS V14.01,2013-01-07 12:18:00,
2013-01-07 04:23:00,44.3,40.4,29.84,South,175,1.0,7.0,86,0.03,,FEW,0.11,VWS V14.01,2013-01-07 12:23:00,
2013-01-07 04:28:00,44.2,40.3,29.84,SSW,202,2.0,7.0,86,0.03,,FEW,0.11,VWS V14.01,2013-01-07 12:28:00,
2013-01-07 04:34:00,44.3,40.1,29.84,South,173,2.0,6.0,85,0.03,,FEW,0.11,VWS V14.01,2013-01-07 12:34:00,
2013-01-07 04:39:00,44.5,40.6,29.84,SSE,163,1.0,9.0,86,0.03,,FEW,0.11,VWS V14.01,2013-01-07 12:39:00,
2013-01-07 04:44:00,44.5,40.6,29.84,SE,131,0.0,9.0,86,0.03,,FEW,0.11,VWS V14.01,2013-01-07 12:44:00,
2013-01-07 04:49:00,44.3,40.4,29.83,North,355,1.0,9.0,86,0.03,,FEW,0.11,VWS V14.01,2013-01-07 12:49:00,
2013-01-07 04:54:00,44.3,40.4,29.83,South,191,1.0,9.0,86,0.03,,FEW,0.11,VWS V14.01,2013-01-07 12:54:00,
2013-01-07 04:59:00,44.3,40.4,29.83,South,183,2.0,9.0,86,0.03,,FEW,0.11,VWS V14.01,2013-01-07 12:59:00,
2013-01-07 05:04:00,44.5,40.3,29.81,ESE,122,0.0,7.0,85,0.02,,FEW,0.11,VWS V14.01,2013-01-07 13:04:00,
2013-01-07 05:09:00,44.5,40.3,29.81,SE,128,3.0,7.0,85,0.02,,FEW,0.11,VWS V14.01,2013-01-07 13:09:00,
2013-01-07 05:14:00,44.6,40.1,29.81,SE,133,2.0,7.0,84,0.02,,FEW,0.11,VWS V14.01,2013-01-07 13:14:00,
2013-01-07 05:19:00,44.9,40.1,29.79,SE,126,6.0,9.0,83,0.02,,FEW,0.11,VWS V14.01,2013-01-07 13:19:00,
2013-01-07 05:24:00,45.4,39.9,29.79,SE,133,6.0,12.0,81,0.02,,FEW,0.11,VWS V14.01,2013-01-07 13:24:00,
2013-01-07 05:29:00,45.7,39.9,29.79,South,189,1.0,12.0,80,0.02,,FEW,0.11,VWS V14.01,2013-01-07 13:29:00,
2013-01-07 05:34:00,45.8,40.0,29.78,South,186,5.0,9.0,80,0.00,,FEW,0.11,VWS V14.01,2013-01-07 13:34:00,
2013-01-07 05:39:00,46.0,39.9,29.78,South,183,2.0,13.0,79,0.00,,FEW,0.11,VWS V14.01,2013-01-07 13:39:00,
2013-01-07 05:44:00,46.0,39.9,29.78,SSE,161,1.0,13.0,79,0.00,,FEW,0.11,VWS V14.01,2013-01-07 13:44:00,
2013-01-07 05:49:00,46.0,39.9,29.78,SSE,166,3.0,13.0,79,0.00,,FEW,0.11,VWS V14.01,2013-01-07 13:49:00,
2013-01-07 05:54:00,46.1,40.0,29.78,SSW,203,4.0,13.0,79,0.00,,FEW,0.11,VWS V14.01,2013-01-07 13:54:00,
2013-01-07 05:59:00,46.2,40.1,29.78,SSE,168,4.0,13.0,79,0.00,,FEW,0.11,VWS V14.01,2013-01-07 13:59:00,
2013-01-07 06:04:00,46.2,40.1,29.79,SSW,193,6.0,9.0,79,0.00,,FEW,0.11,VWS V14.01,2013-01-07 14:04:00,
2013-01-07 06:09:00,46.1,40.3,29.79,South,190,5.0,15.0,80,0.00,,FEW,0.11,VWS V14.01,2013-01-07 14:09:00,
2013-01-07 06:14:00,45.7,40.2,29.79,South,189,5.0,15.0,81,0.00,,FEW,0.11,VWS V14.01,2013-01-07 14:14:00,
2013-01-07 06:19:00,45.5,40.7,29.79,South,188,6.0,15.0,83,0.00,,FEW,0.11,VWS V14.01,2013-01-07 14:19:00,
2013-01-07 06:24:00,45.4,40.9,29.79,South,186,4.0,15.0,84,0.01,,FEW,0.12,VWS V14.01,2013-01-07 14:24:00,
2013-01-07 06:29:00,45.1,40.9,29.80,SSE,151,2.0,15.0,85,0.01,,FEW,0.12,VWS V14.01,2013-01-07 14:29:00,
2013-01-07 06:34:00,45.1,40.9,29.80,SE,135,4.0,6.0,85,0.01,,FEW,0.12,VWS V14.01,2013-01-07 14:34:00,
2013-01-07 06:39:00,45.2,41.0,29.80,SSE,147,3.0,9.0,85,0.02,,FEW,0.13,VWS V14.01,2013-01-07 14:39:00,
2013-01-07 06:44:00,45.2,41.0,29.81,South,191,3.0,11.0,85,0.02,,FEW,0.13,VWS V14.01,2013-01-07 14:44:00,
2013-01-07 06:49:00,45.2,41.3,29.81,South,184,4.0,11.0,86,0.02,,FEW,0.13,VWS V14.01,2013-01-07 14:49:00,
2013-01-07 06:54:00,45.1,41.2,29.81,SSE,147,3.0,11.0,86,0.02,,FEW,0.13,VWS V14.01,2013-01-07 14:54:00,
2013-01-07 06:59:00,45.1,41.2,29.80,SW,227,3.0,13.0,86,0.02,,FEW,0.13,VWS V14.01,2013-01-07 14:59:00,
2013-01-07 07:04:00,45.1,41.2,29.80,South,186,6.0,9.0,86,0.02,,FEW,0.13,VWS V14.01,2013-01-07 15:04:00,
2013-01-07 07:09:00,45.2,41.3,29.80,SE,127,4.0,10.0,86,0.02,,FEW,0.13,VWS V14.01,2013-01-07 15:09:00,
2013-01-07 07:14:00,45.5,41.0,29.81,South,187,6.0,10.0,84,0.02,,FEW,0.13,VWS V14.01,2013-01-07 15:14:00,
2013-01-07 07:19:00,45.8,40.9,29.81,SE,145,3.0,10.0,83,0.02,,FEW,0.13,VWS V14.01,2013-01-07 15:19:00,
2013-01-07 07:25:00,46.0,41.1,29.81,South,188,1.0,10.0,83,0.02,,FEW,0.13,VWS V14.01,2013-01-07 15:25:00,
2013-01-07 07:30:00,46.2,41.0,29.80,South,187,9.0,11.0,82,0.03,,FEW,0.14,VWS V14.01,2013-01-07 15:30:00,
2013-01-07 07:35:00,46.7,40.9,29.80,South,190,4.0,11.0,80,0.02,,FEW,0.14,VWS V14.01,2013-01-07 15:35:00,
2013-01-07 07:40:00,47.1,41.3,29.80,SE,126,5.0,15.0,80,0.02,,FEW,0.14,VWS V14.01,2013-01-07 15:40:00,
2013-01-07 07:45:00,47.1,40.9,29.80,South,189,5.0,15.0,79,0.02,,FEW,0.14,VWS V14.01,2013-01-07 15:45:00,
2013-01-07 07:50:00,47.4,41.2,29.80,South,187,4.0,15.0,79,0.02,,FEW,0.14,VWS V14.01,2013-01-07 15:50:00,
2013-01-07 07:55:00,47.6,41.1,29.80,South,186,3.0,15.0,78,0.02,,FEW,0.14,VWS V14.01,2013-01-07 15:55:00,
2013-01-07 08:00:00,47.6,41.1,29.81,SSW,192,4.0,15.0,78,0.02,,FEW,0.14,VWS V14.01,2013-01-07 16:00:00,
2013-01-07 08:05:00,47.3,41.5,29.81,South,190,6.0,13.0,80,0.01,,FEW,0.14,VWS V14.01,2013-01-07 16:05:00,
2013-01-07 08:10:00,47.1,41.3,29.81,South,187,6.0,13.0,80,0.01,,FEW,0.14,VWS V14.01,2013-01-07 16:10:00,
2013-01-07 08:15:00,47.3,41.5,29.81,South,190,7.0,13.0,80,0.01,,FEW,0.14,VWS V14.01,2013-01-07 16:15:00,
2013-01-07 08:20:00,47.3,41.8,29.81,SSW,203,6.0,13.0,81,0.01,,FEW,0.14,VWS V14.01,2013-01-07 16:20:00,
2013-01-07 08:25:00,47.4,41.5,29.81,SSW,193,5.0,13.0,80,0.01,,FEW,0.14,VWS V14.01,2013-01-07 16:25:00,
2013-01-07 08:30:00,47.6,41.4,29.82,SSW,198,5.0,13.0,79,0.01,,FEW,0.14,VWS V14.01,2013-01-07 16:30:00,
2013-01-07 08:35:00,47.7,41.2,29.82,SSE,153,2.0,6.0,78,0.00,,FEW,0.14,VWS V14.01,2013-01-07 16:35:00,
2013-01-07 08:40:00,48.0,41.5,29.82,SSE,166,6.0,11.0,78,0.00,,FEW,0.14,VWS V14.01,2013-01-07 16:40:00,
2013-01-07 08:45:00,48.0,41.5,29.83,SSW,200,4.0,12.0,78,0.00,,FEW,0.14,VWS V14.01,2013-01-07 16:45:00,
2013-01-07 08:50:00,47.9,41.4,29.83,South,189,4.0,12.0,78,0.00,,FEW,0.14,VWS V14.01,2013-01-07 16:50:00,
2013-01-07 08:55:00,47.7,41.8,29.83,South,177,5.0,12.0,80,0.00,,FEW,0.14,VWS V14.01,2013-01-07 16:55:00,
2013-01-07 09:00:00,47.9,41.7,29.83,SE,126,5.0,14.0,79,0.00,,FEW,0.14,VWS V14.01,2013-01-07 17:00:00,
2013-01-07 09:05:00,47.9,42.0,29.83,South,182,6.0,10.0,80,0.00,,FEW,0.14,VWS V14.01,2013-01-07 17:05:00,
2013-01-07 09:10:00,48.2,42.0,29.83,SSE,162,3.0,13.0,79,0.00,,FEW,0.14,VWS V14.01,2013-01-07 17:10:00,
2013-01-07 09:15:00,48.0,42.1,29.84,South,182,5.0,13.0,80,0.00,,FEW,0.14,VWS V14.01,2013-01-07 17:15:00,
2013-01-07 09:20:00,47.9,42.7,29.84,South,191,5.0,13.0,82,0.00,,FEW,0.14,VWS V14.01,2013-01-07 17:20:00,
2013-01-07 09:25:00,47.6,42.7,29.84,SE,137,4.0,13.0,83,0.00,,FEW,0.14,VWS V14.01,2013-01-07 17:25:00,
2013-01-07 09:30:00,47.1,42.8,29.85,South,187,11.0,11.0,85,0.00,,FEW,0.14,VWS V14.01,2013-01-07 17:30:00,
2013-01-07 09:35:00,46.8,43.1,29.85,SSW,197,5.0,11.0,87,0.00,,FEW,0.14,VWS V14.01,2013-01-07 17:35:00,
2013-01-07 09:40:00,46.7,43.3,29.85,South,178,4.0,12.0,88,0.00,,FEW,0.14,VWS V14.01,2013-01-07 17:40:00,
2013-01-07 09:45:00,46.7,43.3,29.87,SW,214,7.0,12.0,88,0.00,,FEW,0.14,VWS V14.01,2013-01-07 17:45:00,
2013-01-07 09:50:00,46.5,43.4,29.87,SE,131,4.0,12.0,89,0.01,,FEW,0.15,VWS V14.01,2013-01-07 17:50:00,
2013-01-07 09:55:00,46.4,43.3,29.87,South,185,11.0,12.0,89,0.01,,FEW,0.15,VWS V14.01,2013-01-07 17:55:00,
2013-01-07 10:00:00,46.5,43.7,29.87,ESE,123,7.0,7.0,90,0.01,,FEW,0.15,VWS V14.01,2013-01-07 18:00:00,
2013-01-07 10:05:00,46.5,43.7,29.87,South,180,11.0,19.0,90,0.01,,FEW,0.15,VWS V14.01,2013-01-07 18:05:00,
2013-01-07 10:10:00,46.5,43.7,29.87,South,169,4.0,19.0,90,0.01,,FEW,0.15,VWS V14.01,2013-01-07 18:10:00,
2013-01-07 10:15:00,46.5,43.7,29.87,South,187,4.0,19.0,90,0.02,,FEW,0.16,VWS V14.01,2013-01-07 18:15:00,
2013-01-07 10:20:00,46.7,43.9,29.87,SSW,210,6.0,19.0,90,0.02,,FEW,0.16,VWS V14.01,2013-01-07 18:20:00,
2013-01-07 10:25:00,46.5,44.0,29.87,SSW,203,4.0,19.0,91,0.02,,FEW,0.16,VWS V14.01,2013-01-07 18:25:00,
2013-01-07 10:30:00,46.7,44.2,29.87,South,170,8.0,8.0,91,0.02,,FEW,0.16,VWS V14.01,2013-01-07 18:30:00,
2013-01-07 10:35:00,46.7,44.2,29.87,SSW,204,3.0,11.0,91,0.02,,FEW,0.16,VWS V14.01,2013-01-07 18:35:00,
2013-01-07 10:40:00,46.5,44.0,29.87,South,189,3.0,11.0,91,0.03,,FEW,0.17,VWS V14.01,2013-01-07 18:40:00,
2013-01-07 10:45:00,46.5,44.0,29.88,South,180,9.0,12.0,91,0.03,,FEW,0.17,VWS V14.01,2013-01-07 18:45:00,
2013-01-07 10:50:00,46.5,44.0,29.88,SSW,204,4.0,12.0,91,0.03,,FEW,0.17,VWS V14.01,2013-01-07 18:50:00,
2013-01-07 10:55:00,46.5,44.0,29.88,South,172,3.0,12.0,91,0.03,,FEW,0.17,VWS V14.01,2013-01-07 18:55:00,
2013-01-07 11:00:00,46.5,44.0,29.88,South,188,5.0,5.0,91,0.02,,FEW,0.17,VWS V14.01,2013-01-07 19:00:00,
2013-01-07 11:05:00,46.5,44.0,29.88,West,268,0.0,7.0,91,0.02,,FEW,0.17,VWS V14.01,2013-01-07 19:05:00,
2013-01-07 11:10:00,46.5,44.0,29.88,SSW,205,4.0,7.0,91,0.02,,FEW,0.17,VWS V14.01,2013-01-07 19:10:00,
2013-01-07 11:15:00,46.7,44.2,29.90,South,185,1.0,7.0,91,0.03,,FEW,0.18,VWS V14.01,2013-01-07 19:15:00,
2013-01-07 11:20:00,46.5,44.0,29.90,SSW,192,2.0,7.0,91,0.03,,FEW,0.18,VWS V14.01,2013-01-07 19:20:00,
2013-01-07 11:25:00,46.4,43.9,29.90,SSW,192,3.0,7.0,91,0.03,,FEW,0.18,VWS V14.01,2013-01-07 19:25:00,
2013-01-07 11:30:00,46.5,44.0,29.89,SSW,204,4.0,5.0,91,0.02,,FEW,0.18,VWS V14.01,2013-01-07 19:30:00,
2013-01-07 11:36:00,46.7,44.2,29.89,SSW,203,3.0,12.0,91,0.03,,FEW,0.19,VWS V14.01,2013-01-07 19:36:00,
2013-01-07 11:41:00,46.7,44.5,29.89,SSW,202,5.0,12.0,92,0.03,,FEW,0.19,VWS V14.01,2013-01-07 19:41:00,
2013-01-07 11:46:00,46.7,44.5,29.90,South,178,6.0,12.0,92,0.03,,FEW,0.19,VWS V14.01,2013-01-07 19:46:00,
2013-01-07 11:51:00,46.7,44.5,29.90,South,183,2.0,12.0,92,0.03,,FEW,0.19,VWS V14.01,2013-01-07 19:51:00,
2013-01-07 11:56:00,46.7,44.5,29.90,SSW,197,6.0,12.0,92,0.03,,FEW,0.19,VWS V14.01,2013-01-07 19:56:00,
2013-01-07 12:01:00,46.8,44.6,29.90,SW,216,2.0,5.0,92,0.02,,FEW,0.19,VWS V14.01,2013-01-07 20:01:00,
2013-01-07 12:06:00,46.8,44.6,29.90,South,191,2.0,6.0,92,0.03,,FEW,0.20,VWS V14.01,2013-01-07 20:06:00,
2013-01-07 12:11:00,46.7,44.5,29.90,SSW,206,3.0,6.0,92,0.03,,FEW,0.20,VWS V14.01,2013-01-07 20:11:00,
2013-01-07 12:16:00,46.8,44.9,29.90,South,174,0.0,6.0,93,0.03,,FEW,0.20,VWS V14.01,2013-01-07 20:16:00,
2013-01-07 12:19:00,46.8,44.6,29.90,SSW,205,2.0,6.0,92,0.03,,FEW,0.20,VWS V14.01,2013-01-07 20:19:00,
2013-01-07 12:24:00,47.0,44.8,29.90,SSW,203,2.0,6.0,92,0.03,,FEW,0.20,VWS V14.01,2013-01-07 20:24:00,
2013-01-07 12:29:00,47.1,44.9,29.90,SSW,199,0.0,6.0,92,0.03,,FEW,0.20,VWS V14.01,2013-01-07 20:29:00,
2013-01-07 12:34:00,47.1,44.9,29.91,SSW,199,3.0,5.0,92,0.02,,FEW,0.20,VWS V14.01,2013-01-07 20:34:00,
2013-01-07 12:39:00,47.3,45.1,29.91,SSW,209,0.0,5.0,92,0.02,,FEW,0.20,VWS V14.01,2013-01-07 20:39:00,
2013-01-07 12:44:00,47.4,45.2,29.91,SSW,207,0.0,5.0,92,0.02,,FEW,0.20,VWS V14.01,2013-01-07 20:44:00,
2013-01-07 12:49:00,47.4,45.2,29.91,South,189,0.0,5.0,92,0.02,,FEW,0.20,VWS V14.01,2013-01-07 20:49:00,
2013-01-07 12:54:00,47.4,45.5,29.91,South,189,0.0,5.0,93,0.02,,FEW,0.20,VWS V14.01,2013-01-07 20:54:00,
2013-01-07 12:59:00,47.4,45.5,29.91,SW,217,2.0,5.0,93,0.02,,FEW,0.20,VWS V14.01,2013-01-07 20:59:00,
2013-01-07 13:04:00,47.4,45.2,29.91,SSW,207,1.0,3.0,92,0.01,,FEW,0.20,VWS V14.01,2013-01-07 21:04:00,
2013-01-07 13:09:00,47.3,45.1,29.91,South,191,0.0,4.0,92,0.01,,FEW,0.20,VWS V14.01,2013-01-07 21:09:00,
2013-01-07 13:14:00,47.4,45.2,29.92,SSW,204,3.0,4.0,92,0.01,,FEW,0.20,VWS V14.01,2013-01-07 21:14:00,
2013-01-07 13:19:00,47.7,45.2,29.92,South,191,2.0,7.0,91,0.01,,FEW,0.20,VWS V14.01,2013-01-07 21:19:00,
2013-01-07 13:24:00,48.0,45.5,29.92,South,172,0.0,7.0,91,0.01,,FEW,0.20,VWS V14.01,2013-01-07 21:24:00,
2013-01-07 13:29:00,48.2,45.4,29.93,South,185,5.0,12.0,90,0.02,,FEW,0.21,VWS V14.01,2013-01-07 21:29:00,
2013-01-07 13:34:00,48.2,45.4,29.93,SW,230,6.0,9.0,90,0.01,,FEW,0.21,VWS V14.01,2013-01-07 21:34:00,
2013-01-07 13:39:00,48.2,45.4,29.93,SSE,168,1.0,9.0,90,0.01,,FEW,0.21,VWS V14.01,2013-01-07 21:39:00,
2013-01-07 13:44:00,48.0,45.2,29.94,South,183,5.0,9.0,90,0.01,,FEW,0.21,VWS V14.01,2013-01-07 21:44:00,
2013-01-07 13:49:00,48.0,45.2,29.94,South,190,4.0,9.0,90,0.01,,FEW,0.21,VWS V14.01,2013-01-07 21:49:00,
2013-01-07 13:54:00,48.2,45.4,29.94,South,176,5.0,9.0,90,0.01,,FEW,0.21,VWS V14.01,2013-01-07 21:54:00,
2013-01-07 13:59:00,48.3,45.5,29.95,South,187,4.0,10.0,90,0.01,,FEW,0.21,VWS V14.01,2013-01-07 21:59:00,
2013-01-07 14:04:00,48.3,45.5,29.95,South,189,2.0,6.0,90,0.01,,FEW,0.21,VWS V14.01,2013-01-07 22:04:00,
2013-01-07 14:09:00,48.2,45.7,29.95,SSW,192,2.0,6.0,91,0.01,,FEW,0.21,VWS V14.01,2013-01-07 22:09:00,
2013-01-07 14:14:00,48.2,45.7,29.96,SSW,193,5.0,6.0,91,0.01,,FEW,0.21,VWS V14.01,2013-01-07 22:14:00,
2013-01-07 14:19:00,48.2,46.0,29.96,South,188,5.0,11.0,92,0.02,,FEW,0.22,VWS V14.01,2013-01-07 22:19:00,
2013-01-07 14:24:00,48.0,45.8,29.96,SSE,159,2.0,11.0,92,0.02,,FEW,0.22,VWS V14.01,2013-01-07 22:24:00,
2013-01-07 14:30:00,47.9,46.0,29.96,South,184,3.0,11.0,93,0.02,,FEW,0.22,VWS V14.01,2013-01-07 22:30:00,
2013-01-07 14:35:00,47.7,45.8,29.96,South,191,7.0,15.0,93,0.01,,FEW,0.22,VWS V14.01,2013-01-07 22:35:00,
2013-01-07 14:40:00,47.9,45.7,29.96,South,189,8.0,15.0,92,0.01,,FEW,0.22,VWS V14.01,2013-01-07 22:40:00,
2013-01-07 14:45:00,48.0,45.8,29.98,SSW,195,10.0,15.0,92,0.01,,FEW,0.22,VWS V14.01,2013-01-07 22:45:00,
2013-01-07 14:50:00,47.9,45.4,29.98,SSE,168,4.0,15.0,91,0.01,,FEW,0.22,VWS V14.01,2013-01-07 22:50:00,
2013-01-07 14:55:00,47.7,45.2,29.98,SSW,203,5.0,15.0,91,0.01,,FEW,0.22,VWS V14.01,2013-01-07 22:55:00,
2013-01-07 15:00:00,47.6,44.8,29.96,SSW,192,5.0,15.0,90,0.01,,FEW,0.22,VWS V14.01,2013-01-07 23:00:00,
2013-01-07 15:05:00,47.6,44.5,29.96,SSW,196,6.0,10.0,89,0.01,,FEW,0.22,VWS V14.01,2013-01-07 23:05:00,
2013-01-07 15:10:00,47.6,44.8,29.96,SW,221,6.0,10.0,90,0.01,,FEW,0.22,VWS V14.01,2013-01-07 23:10:00,
2013-01-07 15:15:00,47.6,44.5,29.98,SSW,201,8.0,11.0,89,0.01,,FEW,0.22,VWS V14.01,2013-01-07 23:15:00,
2013-01-07 15:20:00,47.6,44.2,29.98,South,187,5.0,11.0,88,0.01,,FEW,0.22,VWS V14.01,2013-01-07 23:20:00,
2013-01-07 15:25:00,47.6,44.2,29.98,South,187,5.0,11.0,88,0.01,,FEW,0.22,VWS V14.01,2013-01-07 23:25:00,
2013-01-07 15:30:00,47.6,43.9,30.01,SSW,200,9.0,12.0,87,0.01,,FEW,0.22,VWS V14.01,2013-01-07 23:30:00,
2013-01-07 15:35:00,47.6,43.9,30.01,South,185,4.0,7.0,87,0.00,,FEW,0.22,VWS V14.01,2013-01-07 23:35:00,
2013-01-07 15:40:00,47.6,43.9,30.01,South,187,5.0,7.0,87,0.00,,FEW,0.22,VWS V14.01,2013-01-07 23:40:00,
2013-01-07 15:45:00,47.6,43.9,30.01,South,189,7.0,12.0,87,0.00,,FEW,0.22,VWS V14.01,2013-01-07 23:45:00,
2013-01-07 15:50:00,47.4,43.4,30.01,South,189,3.0,12.0,86,0.00,,FEW,0.22,VWS V14.01,2013-01-07 23:50:00,
2013-01-07 15:55:00,47.3,43.3,30.01,South,178,4.0,12.0,86,0.00,,FEW,0.22,VWS V14.01,2013-01-07 23:55:00,
2013-01-07 16:00:00,47.1,43.4,30.01,South,190,5.0,5.0,87,0.00,,FEW,0.22,VWS V14.01,2013-01-08 00:00:00,
2013-01-07 16:05:00,47.1,43.4,30.01,South,169,6.0,11.0,87,0.00,,FEW,0.22,VWS V14.01,2013-01-08 00:05:00,
2013-01-07 16:10:00,47.0,43.0,30.01,SE,138,3.0,11.0,86,0.00,,FEW,0.22,VWS V14.01,2013-01-08 00:10:00,
2013-01-07 16:15:00,47.0,43.3,30.01,South,189,6.0,11.0,87,0.00,,FEW,0.22,VWS V14.01,2013-01-08 00:15:00,
2013-01-07 16:20:00,47.0,43.0,30.01,SSW,200,3.0,11.0,86,0.00,,FEW,0.22,VWS V14.01,2013-01-08 00:20:00,
2013-01-07 16:25:00,47.0,43.0,30.01,South,188,5.0,11.0,86,0.00,,FEW,0.22,VWS V14.01,2013-01-08 00:25:00,
2013-01-07 16:30:00,46.8,42.8,30.01,SSW,212,3.0,5.0,86,0.00,,FEW,0.22,VWS V14.01,2013-01-08 00:30:00,
2013-01-07 16:35:00,46.8,42.8,30.01,South,187,5.0,7.0,86,0.00,,FEW,0.22,VWS V14.01,2013-01-08 00:35:00,
2013-01-07 16:40:00,46.8,43.1,30.01,South,185,4.0,7.0,87,0.00,,FEW,0.22,VWS V14.01,2013-01-08 00:40:00,
2013-01-07 16:45:00,46.8,43.1,30.02,South,191,5.0,9.0,87,0.00,,FEW,0.22,VWS V14.01,2013-01-08 00:45:00,
2013-01-07 16:50:00,46.8,42.8,30.02,South,180,9.0,12.0,86,0.00,,FEW,0.22,VWS V14.01,2013-01-08 00:50:00,
2013-01-07 16:55:00,46.7,42.7,30.02,South,186,2.0,12.0,86,0.00,,FEW,0.22,VWS V14.01,2013-01-08 00:55:00,
2013-01-07 17:00:00,46.7,42.7,30.01,SSE,162,2.0,3.0,86,0.00,,FEW,0.22,VWS V14.01,2013-01-08 01:00:00,
2013-01-07 17:05:00,46.7,42.7,30.01,SSW,193,2.0,5.0,86,0.00,,FEW,0.22,VWS V14.01,2013-01-08 01:05:00,
2013-01-07 17:11:00,46.7,42.7,30.01,South,181,2.0,9.0,86,0.00,,FEW,0.22,VWS V14.01,2013-01-08 01:11:00,
2013-01-07 17:16:00,46.7,42.7,30.02,SSW,194,2.0,9.0,86,0.00,,FEW,0.22,VWS V14.01,2013-01-08 01:16:00,
2013-01-07 17:21:00,46.5,42.5,30.02,South,184,4.0,9.0,86,0.00,,FEW,0.22,VWS V14.01,2013-01-08 01:21:00,
2013-01-07 17:26:00,46.5,42.5,30.02,South,170,3.0,9.0,86,0.00,,FEW,0.22,VWS V14.01,2013-01-08 01:26:00,
2013-01-07 17:31:00,46.4,42.5,30.02,South,183,4.0,4.0,86,0.00,,FEW,0.22,VWS V14.01,2013-01-08 01:31:00,
2013-01-07 17:36:00,46.5,42.5,30.02,SSW,193,3.0,9.0,86,0.00,,FEW,0.22,VWS V14.01,2013-01-08 01:36:00,
2013-01-07 17:41:00,46.7,42.1,30.02,South,189,6.0,11.0,84,0.00,,FEW,0.22,VWS V14.01,2013-01-08 01:41:00,
2013-01-07 17:46:00,46.7,42.1,30.03,SSE,162,4.0,11.0,84,0.00,,FEW,0.22,VWS V14.01,2013-01-08 01:46:00,
2013-01-07 17:51:00,46.5,42.2,30.03,South,182,5.0,11.0,85,0.00,,FEW,0.22,VWS V14.01,2013-01-08 01:51:00,
2013-01-07 17:56:00,46.5,42.5,30.03,SSW,195,6.0,21.0,86,0.00,,FEW,0.22,VWS V14.01,2013-01-08 01:56:00,
2013-01-07 18:01:00,46.2,42.2,30.04,SSW,193,13.0,14.0,86,0.00,,FEW,0.22,VWS V14.01,2013-01-08 02:01:00,
2013-01-07 18:06:00,46.1,42.2,30.04,South,169,9.0,14.0,86,0.00,,FEW,0.22,VWS V14.01,2013-01-08 02:06:00,
2013-01-07 18:11:00,46.0,42.0,30.04,South,180,6.0,15.0,86,0.00,,FEW,0.22,VWS V14.01,2013-01-08 02:11:00,
2013-01-07 18:16:00,45.8,41.9,30.04,SSW,193,4.0,15.0,86,0.00,,FEW,0.22,VWS V14.01,2013-01-08 02:16:00,
2013-01-07 18:21:00,45.8,42.2,30.04,South,190,5.0,15.0,87,0.00,,FEW,0.22,VWS V14.01,2013-01-08 02:21:00,
2013-01-07 18:26:00,45.7,42.1,30.04,South,187,6.0,15.0,87,0.00,,FEW,0.22,VWS V14.01,2013-01-08 02:26:00,
2013-01-07 18:31:00,45.7,41.8,30.05,SSW,192,7.0,11.0,86,0.00,,FEW,0.22,VWS V14.01,2013-01-08 02:31:00,
2013-01-07 18:36:00,45.5,41.9,30.05,South,188,4.0,11.0,87,0.00,,FEW,0.22,VWS V14.01,2013-01-08 02:36:00,
2013-01-07 18:41:00,45.4,42.1,30.05,South,187,6.0,12.0,88,0.00,,FEW,0.22,VWS V14.01,2013-01-08 02:41:00,
2013-01-07 18:46:00,45.2,41.9,30.05,SSW,193,4.0,12.0,88,0.00,,FEW,0.22,VWS V14.01,2013-01-08 02:46:00,
2013-01-07 18:51:00,45.2,41.9,30.05,South,187,8.0,12.0,88,0.00,,FEW,0.22,VWS V14.01,2013-01-08 02:51:00,
2013-01-07 18:56:00,45.1,41.5,30.05,SSE,164,3.0,12.0,87,0.00,,FEW,0.22,VWS V14.01,2013-01-08 02:56:00,
2013-01-07 19:01:00,44.9,41.6,30.05,ESE,116,3.0,7.0,88,0.00,,FEW,0.22,VWS V14.01,2013-01-08 03:01:00,
2013-01-07 19:06:00,44.8,41.5,30.05,South,189,10.0,10.0,88,0.00,,FEW,0.22,VWS V14.01,2013-01-08 03:06:00,
2013-01-07 19:11:00,44.8,41.5,30.05,South,191,4.0,12.0,88,0.00,,FEW,0.22,VWS V14.01,2013-01-08 03:11:00,
2013-01-07 19:16:00,44.8,41.5,30.05,South,191,6.0,12.0,88,0.00,,FEW,0.22,VWS V14.01,2013-01-08 03:16:00,
2013-01-07 19:21:00,44.8,41.5,30.05,SSE,149,5.0,12.0,88,0.00,,FEW,0.22,VWS V14.01,2013-01-08 03:21:00,
2013-01-07 19:26:00,44.8,41.2,30.05,South,190,2.0,12.0,87,0.00,,FEW,0.22,VWS V14.01,2013-01-08 03:26:00,
2013-01-07 19:31:00,44.8,41.2,30.06,South,189,4.0,6.0,87,0.00,,FEW,0.22,VWS V14.01,2013-01-08 03:31:00,
2013-01-07 19:36:00,44.8,40.9,30.06,South,189,5.0,6.0,86,0.00,,FEW,0.22,VWS V14.01,2013-01-08 03:36:00,
2013-01-07 19:41:00,44.8,40.9,30.06,SSW,196,4.0,9.0,86,0.00,,FEW,0.22,VWS V14.01,2013-01-08 03:41:00,
2013-01-07 19:46:00,44.8,40.9,30.05,South,181,7.0,9.0,86,0.00,,FEW,0.22,VWS V14.01,2013-01-08 03:46:00,
2013-01-07 19:51:00,44.9,40.7,30.05,South,189,2.0,9.0,85,0.00,,FEW,0.22,VWS V14.01,2013-01-08 03:51:00,
2013-01-07 19:57:00,44.9,40.4,30.05,SSE,164,3.0,9.0,84,0.00,,FEW,0.22,VWS V14.01,2013-01-08 03:57:00,
2013-01-07 20:02:00,45.1,40.6,30.06,SSW,195,3.0,5.0,84,0.00,,FEW,0.22,VWS V14.01,2013-01-08 04:02:00,
2013-01-07 20:07:00,45.2,40.7,30.06,SSW,193,4.0,5.0,84,0.00,,FEW,0.22,VWS V14.01,2013-01-08 04:07:00,
2013-01-07 20:12:00,45.2,40.3,30.06,SE,133,2.0,10.0,83,0.00,,FEW,0.22,VWS V14.01,2013-01-08 04:12:00,
2013-01-07 20:17:00,45.2,40.0,30.06,SE,144,5.0,10.0,82,0.00,,FEW,0.22,VWS V14.01,2013-01-08 04:17:00,
2013-01-07 20:22:00,45.4,40.2,30.06,SSE,161,3.0,10.0,82,0.00,,FEW,0.22,VWS V14.01,2013-01-08 04:22:00,
2013-01-07 20:27:00,45.4,39.9,30.06,South,187,2.0,10.0,81,0.00,,FEW,0.22,VWS V14.01,2013-01-08 04:27:00,
2013-01-07 20:32:00,45.5,40.0,30.07,South,185,2.0,4.0,81,0.00,,FEW,0.22,VWS V14.01,2013-01-08 04:32:00,
2013-01-07 20:37:00,45.5,40.0,30.07,SE,124,2.0,5.0,81,0.00,,FEW,0.22,VWS V14.01,2013-01-08 04:37:00,
2013-01-07 20:42:00,45.5,40.0,30.07,South,190,4.0,6.0,81,0.00,,FEW,0.22,VWS V14.01,2013-01-08 04:42:00,
2013-01-07 20:47:00,45.5,40.0,30.07,SSW,197,4.0,6.0,81,0.00,,FEW,0.22,VWS V14.01,2013-01-08 04:47:00,
2013-01-07 20:52:00,45.5,40.0,30.07,South,185,1.0,6.0,81,0.00,,FEW,0.22,VWS V14.01,2013-01-08 04:52:00,
2013-01-07 20:57:00,45.5,40.0,30.07,SE,133,0.0,6.0,81,0.00,,FEW,0.22,VWS V14.01,2013-01-08 04:57:00,
2013-01-07 21:00:00,45.4,39.9,30.08,SE,136,0.0,0.0,81,0.00,,FEW,0.22,VWS V14.01,2013-01-08 05:00:00,
2013-01-07 21:01:00,45.4,40.2,30.08,SE,137,0.0,1.0,82,0.00,,FEW,0.22,VWS V14.01,2013-01-08 05:01:00,
2013-01-07 21:03:00,45.4,40.2,30.08,SE,137,0.0,1.0,82,0.00,,FEW,0.22,VWS V14.01,2013-01-08 05:03:00,
2013-01-07 21:08:00,45.4,40.2,30.08,South,181,1.0,1.0,82,0.00,,FEW,0.22,VWS V14.01,2013-01-08 05:08:00,
2013-01-07 21:13:00,45.4,40.2,30.08,South,181,0.0,2.0,82,0.00,,FEW,0.22,VWS V14.01,2013-01-08 05:13:00,
2013-01-07 21:18:00,45.2,40.0,30.09,East,96,0.0,4.0,82,0.00,,FEW,0.22,VWS V14.01,2013-01-08 05:18:00,
2013-01-07 21:23:00,45.2,40.3,30.09,SE,135,0.0,4.0,83,0.00,,FEW,0.22,VWS V14.01,2013-01-08 05:23:00,
2013-01-07 21:28:00,45.1,40.2,30.09,SSE,164,1.0,4.0,83,0.00,,FEW,0.22,VWS V14.01,2013-01-08 05:28:00,
2013-01-07 21:33:00,45.1,39.9,30.10,SSW,195,1.0,3.0,82,0.00,,FEW,0.22,VWS V14.01,2013-01-08 05:33:00,
2013-01-07 21:38:00,45.1,39.9,30.10,SSW,195,0.0,3.0,82,0.00,,FEW,0.22,VWS V14.01,2013-01-08 05:38:00,
2013-01-07 21:43:00,44.9,40.1,30.10,SSW,195,0.0,3.0,83,0.00,,FEW,0.22,VWS V14.01,2013-01-08 05:43:00,
2013-01-07 21:48:00,44.8,40.0,30.10,SSW,195,2.0,3.0,83,0.00,,FEW,0.22,VWS V14.01,2013-01-08 05:48:00,
2013-01-07 21:53:00,44.8,40.0,30.10,SSW,195,1.0,3.0,83,0.00,,FEW,0.22,VWS V14.01,2013-01-08 05:53:00,
2013-01-07 21:58:00,44.6,40.1,30.10,SSW,195,0.0,3.0,84,0.00,,FEW,0.22,VWS V14.01,2013-01-08 05:58:00,
2013-01-07 22:03:00,44.5,40.0,30.10,SSW,195,0.0,1.0,84,0.00,,FEW,0.22,VWS V14.01,2013-01-08 06:03:00,
2013-01-07 22:08:00,44.2,40.0,30.10,SSW,195,0.0,1.0,85,0.00,,FEW,0.22,VWS V14.01,2013-01-08 06:08:00,
2013-01-07 22:13:00,44.1,40.2,30.10,SSW,195,0.0,1.0,86,0.00,,FEW,0.22,VWS V14.01,2013-01-08 06:13:00,
2013-01-07 22:18:00,43.8,40.2,30.10,SSW,195,0.0,1.0,87,0.00,,FEW,0.22,VWS V14.01,2013-01-08 06:18:00,
2013-01-07 22:23:00,43.6,40.3,30.10,SSW,195,0.0,1.0,88,0.00,,FEW,0.22,VWS V14.01,2013-01-08 06:23:00,
2013-01-07 22:28:00,43.5,40.5,30.10,SSW,195,0.0,1.0,89,0.00,,FEW,0.22,VWS V14.01,2013-01-08 06:28:00,
2013-01-07 22:33:00,43.5,40.5,30.10,SSW,195,0.0,0.0,89,0.00,,FEW,0.22,VWS V14.01,2013-01-08 06:33:00,
2013-01-07 22:38:00,43.3,40.3,30.10,SSW,195,0.0,0.0,89,0.00,,FEW,0.22,VWS V14.01,2013-01-08 06:38:00,
2013-01-07 22:43:00,43.2,40.5,30.10,SSW,195,0.0,0.0,90,0.00,,FEW,0.22,VWS V14.01,2013-01-08 06:43:00,
2013-01-07 22:48:00,43.1,40.4,30.09,SSW,195,0.0,0.0,90,0.00,,FEW,0.22,VWS V14.01,2013-01-08 06:48:00,
2013-01-07 22:53:00,43.1,40.4,30.09,SSW,195,0.0,0.0,90,0.00,,FEW,0.22,VWS V14.01,2013-01-08 06:53:00,
2013-01-07 22:58:00,42.9,40.2,30.09,SSW,195,0.0,0.0,90,0.00,,FEW,0.22,VWS V14.01,2013-01-08 06:58:00,
2013-01-07 23:03:00,42.9,40.2,30.09,SSW,195,0.0,0.0,90,0.00,,FEW,0.22,VWS V14.01,2013-01-08 07:03:00,
2013-01-07 23:08:00,42.8,40.1,30.09,SSW,195,0.0,0.0,90,0.00,,FEW,0.22,VWS V14.01,2013-01-08 07:08:00,
2013-01-07 23:13:00,42.8,40.1,30.09,SSW,195,0.0,0.0,90,0.00,,FEW,0.22,VWS V14.01,2013-01-08 07:13:00,
2013-01-07 23:18:00,42.6,40.2,30.10,SSW,195,0.0,0.0,91,0.00,,FEW,0.22,VWS V14.01,2013-01-08 07:18:00,
2013-01-07 23:23:00,42.5,40.1,30.10,SSW,195,0.0,0.0,91,0.00,,FEW,0.22,VWS V14.01,2013-01-08 07:23:00,
2013-01-07 23:28:00,42.5,40.1,30.10,SSW,195,0.0,0.0,91,0.00,,FEW,0.22,VWS V14.01,2013-01-08 07:28:00,
2013-01-07 23:33:00,42.3,39.9,30.10,SSW,195,0.0,0.0,91,0.00,,FEW,0.22,VWS V14.01,2013-01-08 07:33:00,
2013-01-07 23:38:00,42.3,39.9,30.10,SSW,195,0.0,0.0,91,0.00,,FEW,0.22,VWS V14.01,2013-01-08 07:38:00,
2013-01-07 23:44:00,42.2,39.8,30.10,SSW,195,0.0,0.0,91,0.00,,FEW,0.22,VWS V14.01,2013-01-08 07:44:00,
2013-01-07 23:49:00,42.1,39.7,30.10,SSW,195,0.0,0.0,91,0.00,,FEW,0.22,VWS V14.01,2013-01-08 07:49:00,
2013-01-07 23:54:00,42.1,39.7,30.10,SSW,195,0.0,0.0,91,0.00,,FEW,0.22,VWS V14.01,2013-01-08 07:54:00,
2013-01-07 23:59:00,41.9,39.5,30.10,SSW,195,0.0,0.0,91,0.00,,FEW,0.22,VWS V14.01,2013-01-08 07:59:00,